sensor_id;sensor_type;location;lat;lon;timestamp;pressure;altitude;pressure_sealevel;temperature;humidity
14242;BME280;7205;50.864;12.766;2023-03-31T00:01:04;96866.91;;;10.07;97.06
14242;BME280;7205;50.864;12.766;2023-03-31T00:03:31;96865.94;;;10.08;97.03
14242;BME280;7205;50.864;12.766;2023-03-31T00:05:59;96858.66;;;10.10;97.58
14242;BME280;7205;50.864;12.766;2023-03-31T00:08:28;96870.03;;;10.11;96.94
14242;BME280;7205;50.864;12.766;2023-03-31T00:11:02;96869.00;;;10.12;97.48
14242;BME280;7205;50.864;12.766;2023-03-31T00:13:29;96873.66;;;10.10;96.96
14242;BME280;7205;50.864;12.766;2023-03-31T00:15:57;96870.38;;;10.08;96.97
14242;BME280;7205;50.864;12.766;2023-03-31T00:18:24;96857.19;;;10.08;96.97
14242;BME280;7205;50.864;12.766;2023-03-31T00:20:51;96850.94;;;10.09;97.37
14242;BME280;7205;50.864;12.766;2023-03-31T00:23:19;96854.56;;;10.08;97.71
14242;BME280;7205;50.864;12.766;2023-03-31T00:25:53;96854.38;;;10.09;97.49
14242;BME280;7205;50.864;12.766;2023-03-31T00:28:21;96845.00;;;10.07;97.03
14242;BME280;7205;50.864;12.766;2023-03-31T00:30:48;96846.47;;;10.09;97.22
14242;BME280;7205;50.864;12.766;2023-03-31T00:33:16;96839.56;;;10.08;96.83
14242;BME280;7205;50.864;12.766;2023-03-31T00:35:43;96827.34;;;10.07;96.55
14242;BME280;7205;50.864;12.766;2023-03-31T00:38:10;96814.16;;;10.07;97.28
14242;BME280;7205;50.864;12.766;2023-03-31T00:40:44;96819.44;;;10.07;97.25
14242;BME280;7205;50.864;12.766;2023-03-31T00:43:26;96814.38;;;10.06;97.09
14242;BME280;7205;50.864;12.766;2023-03-31T00:45:55;96814.56;;;10.04;96.58
14242;BME280;7205;50.864;12.766;2023-03-31T00:48:26;96811.91;;;10.04;97.20
14242;BME280;7205;50.864;12.766;2023-03-31T00:50:55;96800.75;;;10.02;97.12
14242;BME280;7205;50.864;12.766;2023-03-31T00:53:25;96809.63;;;10.01;97.54
14242;BME280;7205;50.864;12.766;2023-03-31T00:55:58;96794.84;;;10.00;97.06
14242;BME280;7205;50.864;12.766;2023-03-31T00:58:30;96788.34;;;10.03;97.24
14242;BME280;7205;50.864;12.766;2023-03-31T01:00:59;96785.91;;;10.01;97.50
14242;BME280;7205;50.864;12.766;2023-03-31T01:03:28;96784.09;;;10.02;97.94
14242;BME280;7205;50.864;12.766;2023-03-31T01:05:56;96778.44;;;10.05;98.49
14242;BME280;7205;50.864;12.766;2023-03-31T01:08:26;96776.06;;;10.10;99.03
14242;BME280;7205;50.864;12.766;2023-03-31T01:10:56;96774.47;;;10.16;98.41
14242;BME280;7205;50.864;12.766;2023-03-31T01:13:24;96760.50;;;10.22;98.62
14242;BME280;7205;50.864;12.766;2023-03-31T01:15:53;96765.44;;;10.31;98.86
14242;BME280;7205;50.864;12.766;2023-03-31T01:18:21;96768.13;;;10.38;98.32
14242;BME280;7205;50.864;12.766;2023-03-31T01:21:17;96762.03;;;10.44;98.74
14242;BME280;7205;50.864;12.766;2023-03-31T01:24:46;96760.66;;;10.48;97.40
14242;BME280;7205;50.864;12.766;2023-03-31T01:30:49;96753.59;;;10.55;97.22
14242;BME280;7205;50.864;12.766;2023-03-31T01:33:38;96745.28;;;10.58;96.58
14242;BME280;7205;50.864;12.766;2023-03-31T01:36:31;96742.63;;;10.58;96.02
14242;BME280;7205;50.864;12.766;2023-03-31T01:39:16;96741.59;;;10.59;95.48
14242;BME280;7205;50.864;12.766;2023-03-31T01:41:56;96731.66;;;10.61;95.50
14242;BME280;7205;50.864;12.766;2023-03-31T01:44:31;96729.84;;;10.61;95.32
14242;BME280;7205;50.864;12.766;2023-03-31T01:47:06;96726.78;;;10.58;94.74
14242;BME280;7205;50.864;12.766;2023-03-31T01:49:40;96724.97;;;10.58;95.08
14242;BME280;7205;50.864;12.766;2023-03-31T01:52:16;96718.25;;;10.56;94.67
14242;BME280;7205;50.864;12.766;2023-03-31T01:54:47;96701.59;;;10.55;94.67
14242;BME280;7205;50.864;12.766;2023-03-31T01:57:21;96701.59;;;10.55;94.12
14242;BME280;7205;50.864;12.766;2023-03-31T01:59:52;96707.69;;;10.56;94.82
14242;BME280;7205;50.864;12.766;2023-03-31T02:02:27;96703.66;;;10.60;93.98
14242;BME280;7205;50.864;12.766;2023-03-31T02:04:58;96697.16;;;10.62;94.06
14242;BME280;7205;50.864;12.766;2023-03-31T02:07:30;96702.44;;;10.62;94.33
14242;BME280;7205;50.864;12.766;2023-03-31T02:10:03;96701.44;;;10.63;93.95
14242;BME280;7205;50.864;12.766;2023-03-31T02:12:37;96695.34;;;10.63;94.21
14242;BME280;7205;50.864;12.766;2023-03-31T02:15:09;96686.38;;;10.64;93.81
14242;BME280;7205;50.864;12.766;2023-03-31T02:17:37;96689.66;;;10.66;94.15
14242;BME280;7205;50.864;12.766;2023-03-31T02:20:10;96689.66;;;10.66;93.96
14242;BME280;7205;50.864;12.766;2023-03-31T02:22:41;96680.13;;;10.65;93.68
14242;BME280;7205;50.864;12.766;2023-03-31T02:25:10;96689.88;;;10.71;94.00
14242;BME280;7205;50.864;12.766;2023-03-31T02:27:42;96690.91;;;10.76;93.98
14242;BME280;7205;50.864;12.766;2023-03-31T02:30:10;96692.31;;;10.79;93.68
14242;BME280;7205;50.864;12.766;2023-03-31T02:32:39;96673.44;;;10.82;93.79
14242;BME280;7205;50.864;12.766;2023-03-31T02:35:09;96675.28;;;10.88;93.64
14242;BME280;7205;50.864;12.766;2023-03-31T02:37:38;96668.00;;;10.90;93.31
14242;BME280;7205;50.864;12.766;2023-03-31T02:40:09;96673.69;;;10.93;92.63
14242;BME280;7205;50.864;12.766;2023-03-31T02:42:38;96670.63;;;10.96;92.13
14242;BME280;7205;50.864;12.766;2023-03-31T02:45:42;96664.31;;;10.97;92.26
14242;BME280;7205;50.864;12.766;2023-03-31T02:48:10;96655.19;;;11.00;91.99
14242;BME280;7205;50.864;12.766;2023-03-31T02:50:51;96657.63;;;11.01;91.81
14242;BME280;7205;50.864;12.766;2023-03-31T02:53:27;96653.16;;;11.02;91.56
14242;BME280;7205;50.864;12.766;2023-03-31T02:56:05;96644.22;;;11.03;91.51
14242;BME280;7205;50.864;12.766;2023-03-31T02:58:54;96641.16;;;11.06;91.21
14242;BME280;7205;50.864;12.766;2023-03-31T03:01:38;96637.34;;;11.08;91.14
14242;BME280;7205;50.864;12.766;2023-03-31T03:04:19;96623.72;;;11.11;90.65
14242;BME280;7205;50.864;12.766;2023-03-31T03:06:54;96620.88;;;11.13;90.63
14242;BME280;7205;50.864;12.766;2023-03-31T03:09:33;96615.38;;;11.14;90.18
14242;BME280;7205;50.864;12.766;2023-03-31T03:12:08;96612.13;;;11.12;90.54
14242;BME280;7205;50.864;12.766;2023-03-31T03:14:39;96598.91;;;11.12;89.89
14242;BME280;7205;50.864;12.766;2023-03-31T03:17:15;96592.78;;;11.12;90.65
14242;BME280;7205;50.864;12.766;2023-03-31T03:19:50;96602.16;;;11.14;90.27
14242;BME280;7205;50.864;12.766;2023-03-31T03:22:18;96598.28;;;11.17;90.03
14242;BME280;7205;50.864;12.766;2023-03-31T03:24:45;96586.09;;;11.16;89.68
14242;BME280;7205;50.864;12.766;2023-03-31T03:27:11;96587.34;;;11.20;90.00
14242;BME280;7205;50.864;12.766;2023-03-31T03:29:38;96599.31;;;11.22;89.23
14242;BME280;7205;50.864;12.766;2023-03-31T03:32:06;96591.38;;;11.22;90.04
14242;BME280;7205;50.864;12.766;2023-03-31T03:34:34;96586.31;;;11.21;89.31
14242;BME280;7205;50.864;12.766;2023-03-31T03:37:01;96569.84;;;11.19;89.37
14242;BME280;7205;50.864;12.766;2023-03-31T03:39:28;96578.38;;;11.21;88.83
14242;BME280;7205;50.864;12.766;2023-03-31T03:41:55;96573.09;;;11.14;88.63
14242;BME280;7205;50.864;12.766;2023-03-31T03:44:22;96575.94;;;11.13;88.78
14242;BME280;7205;50.864;12.766;2023-03-31T03:46:49;96569.03;;;11.12;88.70
14242;BME280;7205;50.864;12.766;2023-03-31T03:49:15;96573.31;;;11.13;88.89
14242;BME280;7205;50.864;12.766;2023-03-31T03:51:46;96571.66;;;11.12;88.31
14242;BME280;7205;50.864;12.766;2023-03-31T03:54:13;96563.75;;;11.12;88.21
14242;BME280;7205;50.864;12.766;2023-03-31T03:56:40;96560.91;;;11.13;88.09
14242;BME280;7205;50.864;12.766;2023-03-31T03:59:09;96559.06;;;11.14;88.09
14242;BME280;7205;50.864;12.766;2023-03-31T04:01:36;96556.44;;;11.14;87.76
14242;BME280;7205;50.864;12.766;2023-03-31T04:04:03;96552.78;;;11.15;87.89
14242;BME280;7205;50.864;12.766;2023-03-31T04:06:30;96552.16;;;11.13;87.74
14242;BME280;7205;50.864;12.766;2023-03-31T04:08:58;96550.34;;;11.13;87.77
14242;BME280;7205;50.864;12.766;2023-03-31T04:11:25;96545.06;;;11.13;87.51
14242;BME280;7205;50.864;12.766;2023-03-31T04:13:52;96544.03;;;11.14;87.51
14242;BME280;7205;50.864;12.766;2023-03-31T04:16:19;96547.28;;;11.16;87.87
14242;BME280;7205;50.864;12.766;2023-03-31T04:18:47;96546.47;;;11.16;87.64
14242;BME280;7205;50.864;12.766;2023-03-31T04:21:14;96537.34;;;11.18;87.95
14242;BME280;7205;50.864;12.766;2023-03-31T04:23:48;96536.91;;;11.21;88.51
14242;BME280;7205;50.864;12.766;2023-03-31T04:26:25;96532.25;;;11.23;88.06
14242;BME280;7205;50.864;12.766;2023-03-31T04:29:04;96524.13;;;11.25;88.11
14242;BME280;7205;50.864;12.766;2023-03-31T04:31:32;96526.53;;;11.26;88.09
14242;BME280;7205;50.864;12.766;2023-03-31T04:33:58;96525.50;;;11.27;88.52
14242;BME280;7205;50.864;12.766;2023-03-31T04:36:27;96517.59;;;11.27;88.28
14242;BME280;7205;50.864;12.766;2023-03-31T04:38:55;96520.22;;;11.27;88.66
14242;BME280;7205;50.864;12.766;2023-03-31T04:41:24;96518.41;;;11.28;88.91
14242;BME280;7205;50.864;12.766;2023-03-31T04:44:01;96509.25;;;11.24;89.21
14242;BME280;7205;50.864;12.766;2023-03-31T04:46:28;96497.50;;;11.20;89.85
14242;BME280;7205;50.864;12.766;2023-03-31T04:49:12;96501.94;;;11.26;89.78
14242;BME280;7205;50.864;12.766;2023-03-31T04:51:39;96495.63;;;11.27;89.69
14242;BME280;7205;50.864;12.766;2023-03-31T04:54:20;96486.31;;;11.24;89.64
14242;BME280;7205;50.864;12.766;2023-03-31T04:56:48;96489.34;;;11.28;90.31
14242;BME280;7205;50.864;12.766;2023-03-31T04:59:15;96485.06;;;11.33;90.53
14242;BME280;7205;50.864;12.766;2023-03-31T05:01:42;96479.78;;;11.33;90.20
14242;BME280;7205;50.864;12.766;2023-03-31T05:04:12;96477.72;;;11.35;90.51
14242;BME280;7205;50.864;12.766;2023-03-31T05:06:39;96470.59;;;11.36;90.89
14242;BME280;7205;50.864;12.766;2023-03-31T05:09:12;96457.59;;;11.34;90.49
14242;BME280;7205;50.864;12.766;2023-03-31T05:11:39;96455.19;;;11.33;90.20
14242;BME280;7205;50.864;12.766;2023-03-31T05:14:07;96453.34;;;11.33;90.19
14242;BME280;7205;50.864;12.766;2023-03-31T05:16:34;96440.31;;;11.32;90.22
14242;BME280;7205;50.864;12.766;2023-03-31T05:19:01;96432.22;;;11.33;90.58
14242;BME280;7205;50.864;12.766;2023-03-31T05:21:28;96422.22;;;11.35;90.80
14242;BME280;7205;50.864;12.766;2023-03-31T05:23:55;96423.44;;;11.39;91.09
14242;BME280;7205;50.864;12.766;2023-03-31T05:26:23;96412.22;;;11.44;90.45
14242;BME280;7205;50.864;12.766;2023-03-31T05:28:50;96411.41;;;11.50;91.16
14242;BME280;7205;50.864;12.766;2023-03-31T05:31:18;96403.84;;;11.54;90.78
14242;BME280;7205;50.864;12.766;2023-03-31T05:33:45;96396.91;;;11.59;90.60
14242;BME280;7205;50.864;12.766;2023-03-31T05:36:15;96387.34;;;11.65;90.41
14242;BME280;7205;50.864;12.766;2023-03-31T05:38:42;96390.38;;;11.68;89.91
14242;BME280;7205;50.864;12.766;2023-03-31T05:41:10;96373.66;;;11.74;90.25
14242;BME280;7205;50.864;12.766;2023-03-31T05:43:37;96374.41;;;11.81;90.57
14242;BME280;7205;50.864;12.766;2023-03-31T05:46:04;96371.50;;;11.89;89.79
14242;BME280;7205;50.864;12.766;2023-03-31T05:48:33;96369.41;;;11.98;89.88
14242;BME280;7205;50.864;12.766;2023-03-31T05:51:01;96354.91;;;12.07;90.16
14242;BME280;7205;50.864;12.766;2023-03-31T05:53:28;96362.94;;;12.18;89.60
14242;BME280;7205;50.864;12.766;2023-03-31T05:55:56;96343.34;;;12.26;89.48
14242;BME280;7205;50.864;12.766;2023-03-31T05:58:24;96352.41;;;12.36;89.04
14242;BME280;7205;50.864;12.766;2023-03-31T06:00:59;96340.16;;;12.42;88.44
14242;BME280;7205;50.864;12.766;2023-03-31T06:03:26;96342.28;;;12.51;88.36
14242;BME280;7205;50.864;12.766;2023-03-31T06:05:55;96346.91;;;12.56;88.19
14242;BME280;7205;50.864;12.766;2023-03-31T06:08:22;96340.97;;;12.60;87.67
14242;BME280;7205;50.864;12.766;2023-03-31T06:10:49;96345.84;;;12.63;87.29
14242;BME280;7205;50.864;12.766;2023-03-31T06:13:16;96344.56;;;12.66;86.74
14242;BME280;7205;50.864;12.766;2023-03-31T06:15:52;96345.97;;;12.69;86.52
14242;BME280;7205;50.864;12.766;2023-03-31T06:18:19;96345.31;;;12.73;86.46
14242;BME280;7205;50.864;12.766;2023-03-31T06:20:45;96342.81;;;12.78;86.32
14242;BME280;7205;50.864;12.766;2023-03-31T06:23:14;96342.50;;;12.86;85.71
14242;BME280;7205;50.864;12.766;2023-03-31T06:25:40;96349.38;;;12.94;85.50
14242;BME280;7205;50.864;12.766;2023-03-31T06:28:07;96338.09;;;12.98;84.68
14242;BME280;7205;50.864;12.766;2023-03-31T06:30:34;96341.34;;;13.00;83.99
14242;BME280;7205;50.864;12.766;2023-03-31T06:33:02;96340.13;;;13.03;83.27
14242;BME280;7205;50.864;12.766;2023-03-31T06:35:29;96337.25;;;13.04;82.48
14242;BME280;7205;50.864;12.766;2023-03-31T06:37:56;96336.81;;;13.07;81.68
14242;BME280;7205;50.864;12.766;2023-03-31T06:40:24;96323.09;;;13.10;81.12
14242;BME280;7205;50.864;12.766;2023-03-31T06:42:51;96327.50;;;13.16;80.88
14242;BME280;7205;50.864;12.766;2023-03-31T06:45:18;96316.63;;;13.24;81.01
14242;BME280;7205;50.864;12.766;2023-03-31T06:47:44;96317.53;;;13.30;80.53
14242;BME280;7205;50.864;12.766;2023-03-31T06:50:11;96308.34;;;13.32;80.13
14242;BME280;7205;50.864;12.766;2023-03-31T06:52:38;96311.94;;;13.38;79.39
14242;BME280;7205;50.864;12.766;2023-03-31T06:55:06;96306.97;;;13.41;78.86
14242;BME280;7205;50.864;12.766;2023-03-31T06:57:35;96291.44;;;13.45;78.78
14242;BME280;7205;50.864;12.766;2023-03-31T07:00:02;96296.44;;;13.53;78.32
14242;BME280;7205;50.864;12.766;2023-03-31T07:02:29;96295.50;;;13.59;77.18
14242;BME280;7205;50.864;12.766;2023-03-31T07:04:56;96295.41;;;13.65;77.02
14242;BME280;7205;50.864;12.766;2023-03-31T07:07:23;96283.09;;;13.71;76.18
14242;BME280;7205;50.864;12.766;2023-03-31T07:09:49;96278.69;;;13.76;75.59
14242;BME280;7205;50.864;12.766;2023-03-31T07:12:16;96277.81;;;13.82;75.18
14242;BME280;7205;50.864;12.766;2023-03-31T07:14:46;96265.69;;;13.86;74.77
14242;BME280;7205;50.864;12.766;2023-03-31T07:17:13;96254.97;;;13.93;74.66
14242;BME280;7205;50.864;12.766;2023-03-31T07:19:39;96261.19;;;13.99;74.04
14242;BME280;7205;50.864;12.766;2023-03-31T07:22:06;96254.88;;;14.00;72.77
14242;BME280;7205;50.864;12.766;2023-03-31T07:24:33;96254.06;;;13.99;71.79
14242;BME280;7205;50.864;12.766;2023-03-31T07:27:00;96266.84;;;14.02;72.21
14242;BME280;7205;50.864;12.766;2023-03-31T07:29:27;96272.28;;;14.07;71.44
14242;BME280;7205;50.864;12.766;2023-03-31T07:31:55;96263.97;;;14.04;70.72
14242;BME280;7205;50.864;12.766;2023-03-31T07:34:22;96260.28;;;14.05;70.07
14242;BME280;7205;50.864;12.766;2023-03-31T07:36:48;96247.03;;;14.05;69.93
14242;BME280;7205;50.864;12.766;2023-03-31T07:39:15;96262.94;;;14.05;69.22
14242;BME280;7205;50.864;12.766;2023-03-31T07:41:42;96257.06;;;14.03;69.31
14242;BME280;7205;50.864;12.766;2023-03-31T07:44:09;96261.53;;;14.02;69.06
14242;BME280;7205;50.864;12.766;2023-03-31T07:46:36;96272.63;;;13.99;68.74
14242;BME280;7205;50.864;12.766;2023-03-31T07:49:04;96263.38;;;13.90;68.52
14242;BME280;7205;50.864;12.766;2023-03-31T07:51:32;96258.66;;;13.80;68.53
14242;BME280;7205;50.864;12.766;2023-03-31T07:53:59;96258.16;;;13.72;68.53
14242;BME280;7205;50.864;12.766;2023-03-31T07:56:26;96271.53;;;13.65;68.91
14242;BME280;7205;50.864;12.766;2023-03-31T07:58:53;96261.84;;;13.59;70.22
14242;BME280;7205;50.864;12.766;2023-03-31T08:01:20;96267.03;;;13.54;70.34
14242;BME280;7205;50.864;12.766;2023-03-31T08:03:51;96261.59;;;13.49;71.17
14242;BME280;7205;50.864;12.766;2023-03-31T08:06:22;96252.25;;;13.47;71.98
14242;BME280;7205;50.864;12.766;2023-03-31T08:08:50;96250.88;;;13.44;72.90
14242;BME280;7205;50.864;12.766;2023-03-31T08:11:17;96254.44;;;13.50;73.82
14242;BME280;7205;50.864;12.766;2023-03-31T08:13:45;96250.53;;;13.52;73.89
14242;BME280;7205;50.864;12.766;2023-03-31T08:16:12;96255.97;;;13.57;74.36
14242;BME280;7205;50.864;12.766;2023-03-31T08:18:39;96238.41;;;13.56;74.35
14242;BME280;7205;50.864;12.766;2023-03-31T08:21:06;96236.56;;;13.57;74.30
14242;BME280;7205;50.864;12.766;2023-03-31T08:23:35;96233.34;;;13.55;74.04
14242;BME280;7205;50.864;12.766;2023-03-31T08:26:10;96236.47;;;13.52;73.57
14242;BME280;7205;50.864;12.766;2023-03-31T08:28:37;96230.56;;;13.50;73.84
14242;BME280;7205;50.864;12.766;2023-03-31T08:31:05;96219.53;;;13.53;73.98
14242;BME280;7205;50.864;12.766;2023-03-31T08:33:32;96212.59;;;13.52;73.79
14242;BME280;7205;50.864;12.766;2023-03-31T08:36:03;96212.34;;;13.53;73.74
14242;BME280;7205;50.864;12.766;2023-03-31T08:38:33;96203.63;;;13.53;73.54
14242;BME280;7205;50.864;12.766;2023-03-31T08:41:05;96195.84;;;13.51;73.36
14242;BME280;7205;50.864;12.766;2023-03-31T08:43:37;96196.56;;;13.47;73.06
14242;BME280;7205;50.864;12.766;2023-03-31T08:46:09;96190.34;;;13.53;73.11
14242;BME280;7205;50.864;12.766;2023-03-31T08:48:41;96190.13;;;13.54;73.20
14242;BME280;7205;50.864;12.766;2023-03-31T08:51:13;96181.25;;;13.60;73.40
14242;BME280;7205;50.864;12.766;2023-03-31T08:53:42;96173.75;;;13.69;72.79
14242;BME280;7205;50.864;12.766;2023-03-31T08:56:16;96162.78;;;13.77;72.83
14242;BME280;7205;50.864;12.766;2023-03-31T08:58:45;96174.22;;;13.89;72.37
14242;BME280;7205;50.864;12.766;2023-03-31T09:01:22;96155.28;;;13.97;71.86
14242;BME280;7205;50.864;12.766;2023-03-31T09:04:05;96161.03;;;14.06;71.41
14242;BME280;7205;50.864;12.766;2023-03-31T09:06:36;96137.13;;;14.17;71.28
14242;BME280;7205;50.864;12.766;2023-03-31T09:09:09;96153.16;;;14.22;69.99
14242;BME280;7205;50.864;12.766;2023-03-31T09:11:43;96150.25;;;14.24;69.26
14242;BME280;7205;50.864;12.766;2023-03-31T09:14:23;96137.94;;;14.18;68.68
14242;BME280;7205;50.864;12.766;2023-03-31T09:16:59;96138.66;;;14.13;68.82
14242;BME280;7205;50.864;12.766;2023-03-31T09:19:37;96143.47;;;14.16;69.04
14242;BME280;7205;50.864;12.766;2023-03-31T09:22:10;96140.94;;;14.21;68.95
14242;BME280;7205;50.864;12.766;2023-03-31T09:24:50;96141.28;;;14.25;68.59
14242;BME280;7205;50.864;12.766;2023-03-31T09:27:22;96135.88;;;14.20;67.87
14242;BME280;7205;50.864;12.766;2023-03-31T09:29:54;96132.28;;;14.14;67.79
14242;BME280;7205;50.864;12.766;2023-03-31T09:32:26;96129.53;;;14.09;67.61
14242;BME280;7205;50.864;12.766;2023-03-31T09:34:57;96124.56;;;14.13;68.90
14242;BME280;7205;50.864;12.766;2023-03-31T09:37:28;96126.03;;;14.20;69.40
14242;BME280;7205;50.864;12.766;2023-03-31T09:39:57;96124.91;;;14.28;69.45
14242;BME280;7205;50.864;12.766;2023-03-31T09:42:26;96121.19;;;14.29;69.17
14242;BME280;7205;50.864;12.766;2023-03-31T09:44:53;96108.03;;;14.22;69.23
14242;BME280;7205;50.864;12.766;2023-03-31T09:47:27;96108.88;;;14.11;69.17
14242;BME280;7205;50.864;12.766;2023-03-31T09:49:56;96105.53;;;14.04;69.98
14242;BME280;7205;50.864;12.766;2023-03-31T09:52:27;96094.09;;;14.04;70.32
14242;BME280;7205;50.864;12.766;2023-03-31T09:54:58;96105.41;;;14.11;70.73
14242;BME280;7205;50.864;12.766;2023-03-31T09:57:29;96083.94;;;14.12;70.79
14242;BME280;7205;50.864;12.766;2023-03-31T10:00:02;96087.31;;;14.08;70.12
14242;BME280;7205;50.864;12.766;2023-03-31T10:02:38;96079.38;;;13.96;69.75
14242;BME280;7205;50.864;12.766;2023-03-31T10:05:21;96081.22;;;13.84;69.89
14242;BME280;7205;50.864;12.766;2023-03-31T10:07:48;96066.69;;;13.75;69.98
14242;BME280;7205;50.864;12.766;2023-03-31T10:10:25;96068.22;;;13.71;70.15
14242;BME280;7205;50.864;12.766;2023-03-31T10:12:54;96067.66;;;13.69;70.50
14242;BME280;7205;50.864;12.766;2023-03-31T10:15:25;96065.47;;;13.66;70.87
14242;BME280;7205;50.864;12.766;2023-03-31T10:17:53;96060.16;;;13.66;70.86
14242;BME280;7205;50.864;12.766;2023-03-31T10:20:30;96063.06;;;13.64;71.33
14242;BME280;7205;50.864;12.766;2023-03-31T10:23:02;96050.56;;;13.65;71.95
14242;BME280;7205;50.864;12.766;2023-03-31T10:25:32;96055.44;;;13.68;71.82
14242;BME280;7205;50.864;12.766;2023-03-31T10:28:01;96041.84;;;13.64;71.61
14242;BME280;7205;50.864;12.766;2023-03-31T10:30:32;96036.19;;;13.61;71.86
14242;BME280;7205;50.864;12.766;2023-03-31T10:33:05;96043.91;;;13.62;72.14
14242;BME280;7205;50.864;12.766;2023-03-31T10:35:34;96033.28;;;13.62;72.37
14242;BME280;7205;50.864;12.766;2023-03-31T10:38:04;96029.13;;;13.66;72.69
14242;BME280;7205;50.864;12.766;2023-03-31T10:40:33;96018.50;;;13.66;73.11
14242;BME280;7205;50.864;12.766;2023-03-31T10:43:07;96017.16;;;13.64;73.25
14242;BME280;7205;50.864;12.766;2023-03-31T10:45:42;96016.34;;;13.63;73.43
14242;BME280;7205;50.864;12.766;2023-03-31T10:48:17;96005.16;;;13.61;73.34
14242;BME280;7205;50.864;12.766;2023-03-31T10:50:44;96008.28;;;13.58;73.75
14242;BME280;7205;50.864;12.766;2023-03-31T10:53:13;95996.53;;;13.54;73.53
14242;BME280;7205;50.864;12.766;2023-03-31T10:55:46;96002.19;;;13.46;73.15
14242;BME280;7205;50.864;12.766;2023-03-31T10:58:30;95999.88;;;13.38;73.39
14242;BME280;7205;50.864;12.766;2023-03-31T11:01:07;95985.41;;;13.29;73.70
14242;BME280;7205;50.864;12.766;2023-03-31T11:04:01;95989.53;;;13.25;74.24
14242;BME280;7205;50.864;12.766;2023-03-31T11:06:44;95990.38;;;13.14;73.50
14242;BME280;7205;50.864;12.766;2023-03-31T11:09:22;95985.28;;;13.01;73.77
14242;BME280;7205;50.864;12.766;2023-03-31T11:12:00;95977.41;;;12.95;74.00
14242;BME280;7205;50.864;12.766;2023-03-31T11:14:42;95978.81;;;12.86;74.41
14242;BME280;7205;50.864;12.766;2023-03-31T11:17:21;95967.06;;;12.82;75.05
14242;BME280;7205;50.864;12.766;2023-03-31T11:19:58;95971.53;;;12.81;75.58
14242;BME280;7205;50.864;12.766;2023-03-31T11:22:35;95959.34;;;12.80;76.13
14242;BME280;7205;50.864;12.766;2023-03-31T11:25:13;95954.03;;;12.80;76.57
14242;BME280;7205;50.864;12.766;2023-03-31T11:28:14;95939.53;;;12.83;77.47
14242;BME280;7205;50.864;12.766;2023-03-31T11:30:50;95936.44;;;12.86;78.22
14242;BME280;7205;50.864;12.766;2023-03-31T11:33:30;95936.78;;;12.89;78.69
14242;BME280;7205;50.864;12.766;2023-03-31T11:36:15;95923.06;;;12.92;79.11
14242;BME280;7205;50.864;12.766;2023-03-31T11:38:54;95930.31;;;12.97;79.50
14242;BME280;7205;50.864;12.766;2023-03-31T11:41:31;95920.06;;;13.00;79.72
14242;BME280;7205;50.864;12.766;2023-03-31T11:44:01;95927.56;;;13.03;80.13
14242;BME280;7205;50.864;12.766;2023-03-31T11:46:36;95911.00;;;13.08;80.16
14242;BME280;7205;50.864;12.766;2023-03-31T11:49:09;95906.94;;;13.17;80.59
14242;BME280;7205;50.864;12.766;2023-03-31T11:51:43;95903.34;;;13.23;80.58
14242;BME280;7205;50.864;12.766;2023-03-31T11:54:17;95898.84;;;13.23;79.84
14242;BME280;7205;50.864;12.766;2023-03-31T11:56:45;95896.19;;;13.23;79.26
14242;BME280;7205;50.864;12.766;2023-03-31T11:59:14;95890.88;;;13.23;79.25
14242;BME280;7205;50.864;12.766;2023-03-31T12:01:46;95891.22;;;13.27;79.81
14242;BME280;7205;50.864;12.766;2023-03-31T12:04:24;95880.72;;;13.32;79.71
14242;BME280;7205;50.864;12.766;2023-03-31T12:06:59;95881.88;;;13.36;79.66
14242;BME280;7205;50.864;12.766;2023-03-31T12:09:34;95873.13;;;13.35;79.23
14242;BME280;7205;50.864;12.766;2023-03-31T12:12:06;95874.41;;;13.33;78.87
14242;BME280;7205;50.864;12.766;2023-03-31T12:14:39;95874.06;;;13.29;78.72
14242;BME280;7205;50.864;12.766;2023-03-31T12:17:10;95869.56;;;13.30;78.46
14242;BME280;7205;50.864;12.766;2023-03-31T12:19:44;95866.44;;;13.33;78.47
14242;BME280;7205;50.864;12.766;2023-03-31T12:22:15;95861.56;;;13.41;78.55
14242;BME280;7205;50.864;12.766;2023-03-31T12:24:44;95862.56;;;13.52;78.47
14242;BME280;7205;50.864;12.766;2023-03-31T12:27:15;95858.84;;;13.64;78.09
14242;BME280;7205;50.864;12.766;2023-03-31T12:29:47;95856.53;;;13.84;78.30
14242;BME280;7205;50.864;12.766;2023-03-31T12:32:20;95854.94;;;14.17;78.50
14242;BME280;7205;50.864;12.766;2023-03-31T12:34:50;95849.50;;;14.40;75.22
14242;BME280;7205;50.864;12.766;2023-03-31T12:37:49;95848.25;;;14.64;74.06
14242;BME280;7205;50.864;12.766;2023-03-31T12:40:26;95838.16;;;14.82;72.53
14242;BME280;7205;50.864;12.766;2023-03-31T12:43:06;95831.44;;;14.96;71.94
14242;BME280;7205;50.864;12.766;2023-03-31T12:45:42;95833.28;;;14.96;68.59
14242;BME280;7205;50.864;12.766;2023-03-31T12:48:38;95837.72;;;14.90;67.61
14242;BME280;7205;50.864;12.766;2023-03-31T12:51:26;95832.59;;;14.84;66.46
14242;BME280;7205;50.864;12.766;2023-03-31T12:54:13;95833.97;;;14.86;66.99
14242;BME280;7205;50.864;12.766;2023-03-31T12:57:06;95824.13;;;14.87;65.65
14242;BME280;7205;50.864;12.766;2023-03-31T12:59:40;95834.16;;;14.80;64.66
14242;BME280;7205;50.864;12.766;2023-03-31T13:02:19;95835.69;;;14.76;65.21
14242;BME280;7205;50.864;12.766;2023-03-31T13:04:48;95823.03;;;14.83;65.50
14242;BME280;7205;50.864;12.766;2023-03-31T13:07:37;95827.47;;;14.99;65.72
14242;BME280;7205;50.864;12.766;2023-03-31T13:10:26;95837.25;;;15.15;64.87
14242;BME280;7205;50.864;12.766;2023-03-31T13:13:03;95826.13;;;15.18;63.04
14242;BME280;7205;50.864;12.766;2023-03-31T13:15:31;95823.22;;;15.20;63.21
14242;BME280;7205;50.864;12.766;2023-03-31T13:17:59;95826.22;;;15.28;63.15
14242;BME280;7205;50.864;12.766;2023-03-31T13:20:32;95840.16;;;15.35;62.62
14242;BME280;7205;50.864;12.766;2023-03-31T13:23:05;95829.19;;;15.32;61.55
14242;BME280;7205;50.864;12.766;2023-03-31T13:25:48;95835.69;;;15.19;61.01
14242;BME280;7205;50.864;12.766;2023-03-31T13:28:28;95818.34;;;15.12;61.30